Time;durP1;ratioP1;P1;durP2;ratioP2;P2;SDS_P1;SDS_P2;PMS_P1;PMS_P2;Temp;Humidity;BMP_temperature;BMP_pressure;BME280_temperature;BME280_humidity;BME280_pressure;Samples;Min_cycle;Max_cycle;Signal;HPM_P1;HPM_P2
2021/12/29 00:01:06;;;;;;;3.65;2.10;;;9.70;99.90;;;9.59;100.00;99469.03;5207789;28;20050;-71
2021/12/29 00:03:38;;;;;;;5.15;2.33;;;9.70;99.90;;;9.57;100.00;99468.97;5207417;28;20052;-71
2021/12/29 00:06:10;;;;;;;3.88;2.20;;;9.70;99.90;;;9.59;100.00;99476.84;5206846;28;20056;-71
2021/12/29 00:08:43;;;;;;;3.38;2.10;;;9.70;99.90;;;9.60;100.00;99481.19;5207406;28;20049;-71
2021/12/29 00:11:15;;;;;;;4.95;2.58;;;9.70;99.90;;;9.67;100.00;99475.22;5206217;28;20067;-71
2021/12/29 00:13:47;;;;;;;3.58;1.90;;;9.70;99.90;;;9.67;100.00;99481.31;5207025;28;20140;-71
2021/12/29 00:16:20;;;;;;;5.45;2.35;;;9.70;99.90;;;9.67;100.00;99485.63;5207200;28;20041;-71
2021/12/29 00:18:52;;;;;;;4.55;2.15;;;9.70;99.90;;;9.68;100.00;99493.47;5207227;28;20045;-71
2021/12/29 00:21:24;;;;;;;5.13;2.55;;;9.70;99.90;;;9.68;100.00;99497.78;5207410;28;20620;-71
2021/12/29 00:23:59;;;;;;;5.95;2.88;;;9.70;99.90;;;9.72;100.00;99489.22;5206860;28;20045;-71
2021/12/29 00:26:32;;;;;;;5.07;2.35;;;9.70;99.90;;;9.71;100.00;99498.72;5207237;28;20046;-71
2021/12/29 00:29:04;;;;;;;6.60;2.90;;;9.80;99.90;;;9.68;100.00;99497.78;5207228;28;20045;-71
2021/12/29 00:31:37;;;;;;;6.03;2.75;;;9.80;99.90;;;9.70;100.00;99506.50;5207086;28;20059;-71
2021/12/29 00:34:08;;;;;;;7.25;2.92;;;9.80;99.90;;;9.71;100.00;99508.25;5206338;28;20053;-71
2021/12/29 00:36:41;;;;;;;5.40;2.80;;;9.80;99.90;;;9.70;100.00;99509.09;5207143;28;20475;-71
2021/12/29 00:39:14;;;;;;;9.60;3.72;;;9.80;99.90;;;9.71;100.00;99513.44;5206857;28;20214;-71
2021/12/29 00:41:46;;;;;;;5.32;2.90;;;9.80;99.90;;;9.72;100.00;99528.22;5206894;28;20049;-71
2021/12/29 00:44:18;;;;;;;6.78;3.60;;;9.80;99.90;;;9.69;100.00;99531.63;5206159;28;20049;-71
2021/12/29 00:46:53;;;;;;;6.32;3.33;;;9.80;99.90;;;9.60;100.00;99525.41;5206860;28;20045;-71
2021/12/29 00:49:31;;;;;;;;;;;9.80;99.90;;;9.68;100.00;99542.03;5207287;28;20053;-71
2021/12/29 00:52:07;;;;;;;7.53;2.90;;;9.80;99.90;;;9.65;100.00;99541.94;5206768;28;20444;-71
2021/12/29 00:54:44;;;;;;;5.50;3.05;;;9.80;99.90;;;9.64;100.00;99555.81;5206027;28;20057;-71
2021/12/29 00:57:16;;;;;;;5.97;2.90;;;9.80;99.90;;;9.67;100.00;99576.72;5206697;28;20498;-71
2021/12/29 00:59:48;;;;;;;5.15;2.60;;;9.80;99.90;;;9.71;100.00;99591.50;5206408;28;20046;-71
2021/12/29 01:02:20;;;;;;;8.23;3.45;;;9.80;99.90;;;9.71;100.00;99591.50;5206367;28;20052;-71
2021/12/29 01:04:53;;;;;;;6.50;3.03;;;9.80;99.90;;;9.72;100.00;99598.50;5205711;28;20128;-71
2021/12/29 01:07:25;;;;;;;6.15;3.00;;;9.80;99.90;;;9.77;100.00;99602.03;5206545;28;20144;-71
2021/12/29 01:09:59;;;;;;;6.80;2.83;;;9.80;99.90;;;9.83;100.00;99607.34;5206356;28;20148;-71
2021/12/29 01:12:31;;;;;;;5.70;2.88;;;9.80;99.90;;;9.84;100.00;99609.09;5206370;28;20107;-71
2021/12/29 01:15:05;;;;;;;2.88;1.98;;;9.90;99.90;;;9.90;100.00;99619.63;5205627;28;20053;-71
2021/12/29 01:17:37;;;;;;;3.90;2.00;;;9.90;99.90;;;9.85;100.00;99630.84;5206091;28;20103;-71
2021/12/29 01:20:10;;;;;;;4.35;2.38;;;9.90;99.90;;;9.85;100.00;99629.09;5206202;28;20049;-71
2021/12/29 01:22:42;;;;;;;4.97;2.47;;;9.90;99.90;;;9.81;100.00;99631.63;5206026;28;20045;-71
2021/12/29 01:25:16;;;;;;;5.07;2.47;;;9.90;99.90;;;9.87;100.00;99634.34;5205618;28;20045;-71
2021/12/29 01:27:49;;;;;;;7.75;2.25;;;9.90;99.90;;;9.90;100.00;99637.84;5206038;28;20681;-71
2021/12/29 01:30:21;;;;;;;6.88;2.20;;;9.90;99.90;;;9.86;100.00;99646.47;5205715;28;20056;-71
2021/12/29 01:32:53;;;;;;;4.65;2.47;;;9.90;99.90;;;9.85;100.00;99662.06;5205840;28;20482;-71
2021/12/29 01:35:25;;;;;;;4.40;2.20;;;9.90;99.90;;;9.79;100.00;99653.28;5205393;28;20720;-71
2021/12/29 01:37:57;;;;;;;6.22;2.85;;;9.90;99.90;;;9.84;100.00;99658.56;5205747;28;20049;-71
2021/12/29 01:40:32;;;;;;;3.97;2.83;;;9.90;99.90;;;9.85;100.00;99662.06;5205630;28;20055;-71
2021/12/29 01:43:05;;;;;;;5.22;2.50;;;9.90;99.90;;;9.82;100.00;99657.66;5205739;28;20049;-71
2021/12/29 01:45:37;;;;;;;5.88;2.67;;;9.90;99.90;;;9.88;100.00;99668.19;5204994;28;20140;-71
2021/12/29 01:48:10;;;;;;;5.10;2.55;;;9.90;99.90;;;9.85;100.00;99678.56;5205423;28;20045;-71
2021/12/29 01:50:47;;;;;;;6.25;2.70;;;9.90;99.90;;;9.87;100.00;99681.19;5205460;28;20049;-71
2021/12/29 01:53:25;;;;;;;4.00;2.13;;;9.90;99.90;;;9.92;100.00;99690.84;5205305;28;20056;-71
2021/12/29 01:55:59;;;;;;;5.93;2.70;;;9.90;99.90;;;9.89;100.00;99705.50;5204807;28;20144;-71
2021/12/29 01:58:31;;;;;;;5.80;2.70;;;9.90;99.90;;;9.86;100.00;99708.94;5205327;28;20055;-71
2021/12/29 02:01:04;;;;;;;4.40;2.40;;;9.90;99.90;;;9.85;100.00;99709.78;5205131;28;20055;-71
2021/12/29 02:03:36;;;;;;;5.10;2.60;;;9.90;99.90;;;9.88;100.00;99715.03;5205021;28;20060;-71
2021/12/29 02:06:08;;;;;;;4.90;3.08;;;9.90;99.90;;;9.90;100.00;99717.69;5204590;28;20478;-71
2021/12/29 02:08:40;;;;;;;5.30;2.83;;;9.90;99.90;;;9.90;100.00;99717.69;5205285;28;20067;-71
2021/12/29 02:11:13;;;;;;;6.03;3.00;;;10.00;99.90;;;9.89;100.00;99728.94;5205272;28;20045;-71
2021/12/29 02:13:45;;;;;;;5.57;2.67;;;9.90;99.90;;;9.92;100.00;99740.31;5204488;28;20494;-71
2021/12/29 02:16:17;;;;;;;4.60;2.83;;;9.90;99.90;;;9.89;100.00;99740.22;5204757;28;20371;-71
2021/12/29 02:18:53;;;;;;;5.88;3.08;;;9.90;99.90;;;9.84;100.00;99754.84;5205226;28;20087;-71
2021/12/29 02:21:29;;;;;;;;;;;9.90;99.90;;;9.83;100.00;99760.91;5205768;28;20525;-71
2021/12/29 02:24:18;;;;;;;8.18;3.42;;;9.90;99.90;;;9.82;100.00;99769.56;5204258;28;19921;-71
2021/12/29 02:26:52;;;;;;;5.38;2.83;;;9.90;99.90;;;9.89;100.00;99758.44;5205262;28;20107;-71
2021/12/29 02:29:26;;;;;;;4.75;3.00;;;9.90;99.90;;;9.85;100.00;99745.34;5204698;28;20046;-71
2021/12/29 02:31:58;;;;;;;6.80;3.13;;;9.90;99.90;;;9.83;100.00;99753.09;5204900;28;20057;-71
2021/12/29 02:34:32;;;;;;;6.57;3.35;;;9.90;99.90;;;9.84;100.00;99769.59;5203437;28;20442;-71
2021/12/29 02:37:06;;;;;;;6.72;3.50;;;9.90;99.90;;;9.88;100.00;99779.25;5204662;28;20053;-71
2021/12/29 02:39:38;;;;;;;6.18;3.22;;;9.90;99.90;;;9.86;100.00;99784.41;5204831;28;20057;-71
2021/12/29 02:42:10;;;;;;;5.97;3.28;;;9.90;99.90;;;9.82;100.00;99781.72;5204849;28;20045;-71
2021/12/29 02:44:42;;;;;;;8.60;3.92;;;9.90;99.90;;;9.83;100.00;99792.16;5203953;28;20049;-71
2021/12/29 02:47:14;;;;;;;7.80;3.80;;;9.90;99.90;;;9.82;100.00;99794.72;5204620;28;20100;-71
2021/12/29 02:49:47;;;;;;;8.63;3.70;;;9.90;99.90;;;9.82;100.00;99797.31;5204736;28;20049;-71
2021/12/29 02:52:21;;;;;;;9.50;4.07;;;9.90;99.90;;;9.82;100.00;99793.00;5204641;28;20045;-71
2021/12/29 02:54:53;;;;;;;11.95;3.90;;;9.90;99.90;;;9.80;100.00;99797.31;5204093;28;20053;-71
2021/12/29 02:57:25;;;;;;;8.55;4.18;;;9.80;99.90;;;9.84;100.00;99801.72;5204587;28;20121;-71
2021/12/29 02:59:57;;;;;;;8.48;3.45;;;9.90;99.90;;;9.85;100.00;99800.88;5204307;28;20167;-71
2021/12/29 03:02:29;;;;;;;7.88;3.90;;;9.90;99.90;;;9.83;100.00;99810.38;5204495;28;20060;-71
2021/12/29 03:05:02;;;;;;;6.47;3.90;;;9.90;99.90;;;9.83;100.00;99815.56;5204230;28;20049;-71
2021/12/29 03:07:36;;;;;;;8.57;3.80;;;9.90;99.90;;;9.81;100.00;99822.47;5204253;28;20046;-71
2021/12/29 03:10:08;;;;;;;8.98;4.72;;;9.90;99.90;;;9.81;100.00;99825.09;5204510;28;20406;-71
2021/12/29 03:12:40;;;;;;;8.63;3.97;;;9.90;99.90;;;9.81;100.00;99826.81;5204748;28;20057;-71
2021/12/29 03:15:12;;;;;;;6.43;3.53;;;9.90;99.90;;;9.84;100.00;99832.94;5203936;28;20049;-71
2021/12/29 03:17:44;;;;;;;7.43;3.20;;;9.90;99.90;;;9.82;100.00;99824.22;5204578;28;20410;-71
2021/12/29 03:20:16;;;;;;;7.13;3.55;;;9.90;99.90;;;9.89;100.00;99825.25;5204408;28;20049;-71
2021/12/29 03:22:50;;;;;;;7.57;3.75;;;9.90;99.90;;;9.80;100.00;99831.13;5204231;28;20049;-71
2021/12/29 03:25:22;;;;;;;9.73;3.78;;;9.80;99.90;;;9.79;100.00;99834.59;5204026;28;20071;-71
2021/12/29 03:27:58;;;;;;;7.60;3.20;;;9.90;99.90;;;9.80;100.00;99833.75;5204573;28;20045;-71
2021/12/29 03:30:35;;;;;;;8.52;3.15;;;9.90;99.90;;;9.80;100.00;99836.34;5204272;28;20407;-71
2021/12/29 03:33:09;;;;;;;8.52;3.90;;;9.90;99.90;;;9.88;100.00;99837.38;5204392;28;20053;-71
2021/12/29 03:35:45;;;;;;;7.65;4.03;;;9.80;99.90;;;9.85;100.00;99839.94;5203928;28;20495;-71
2021/12/29 03:38:23;;;;;;;6.45;3.38;;;9.90;99.90;;;9.83;100.00;99844.22;5204347;28;20049;-71
2021/12/29 03:40:57;;;;;;;8.35;3.70;;;9.90;99.90;;;9.81;100.00;99829.41;5204301;28;20053;-71
2021/12/29 03:43:32;;;;;;;7.13;3.50;;;9.90;99.90;;;9.75;100.00;99840.56;5203957;28;20059;-71
2021/12/29 03:46:06;;;;;;;9.68;3.88;;;9.80;99.90;;;9.69;100.00;99838.69;5206695;28;20127;-71
2021/12/29 03:48:41;;;;;;;8.32;4.05;;;9.80;99.90;;;9.69;100.00;99856.03;5207894;28;20060;-71
2021/12/29 03:51:13;;;;;;;8.82;4.00;;;9.80;99.90;;;9.71;100.00;99851.72;5207833;28;20050;-71
2021/12/29 03:53:47;;;;;;;7.57;3.45;;;9.80;99.90;;;9.69;100.00;99848.22;5207246;28;20057;-71
2021/12/29 03:56:19;;;;;;;6.47;3.55;;;9.80;99.90;;;9.70;100.00;99865.59;5207729;28;20838;-71
2021/12/29 03:58:51;;;;;;;6.30;3.55;;;9.80;99.90;;;9.70;100.00;99870.78;5207754;28;20059;-71
2021/12/29 04:01:25;;;;;;;5.88;2.95;;;9.80;99.90;;;9.75;100.00;99874.38;5207978;28;20053;-71
2021/12/29 04:03:57;;;;;;;7.18;3.67;;;9.80;99.90;;;9.71;100.00;99872.53;5207289;28;20087;-71
2021/12/29 04:06:29;;;;;;;8.98;3.47;;;9.80;99.90;;;9.71;100.00;99880.34;5207373;28;20068;-71
2021/12/29 04:09:04;;;;;;;5.93;3.25;;;9.80;99.90;;;9.75;100.00;99883.06;5207528;28;20045;-71
2021/12/29 04:11:36;;;;;;;7.95;3.97;;;9.80;99.90;;;9.71;100.00;99898.56;5207825;28;20485;-71
2021/12/29 04:14:08;;;;;;;7.70;3.60;;;9.80;99.90;;;9.69;100.00;99905.47;5207052;28;20045;-71
2021/12/29 04:16:45;;;;;;;6.15;3.58;;;9.80;99.90;;;9.76;100.00;99907.38;5207476;28;20383;-71
2021/12/29 04:19:29;;;;;;;6.75;3.42;;;9.80;99.90;;;9.71;100.00;99903.78;5207603;28;20051;-71
2021/12/29 04:22:01;;;;;;;7.50;4.05;;;9.70;99.90;;;9.72;100.00;99910.75;5207460;28;20406;-71
2021/12/29 04:24:36;;;;;;;7.47;3.55;;;9.70;99.90;;;9.67;100.00;99917.56;5206840;28;20061;-71
2021/12/29 04:27:08;;;;;;;;;;;9.70;99.90;;;9.66;100.00;99931.44;5207569;28;20049;-71
2021/12/29 04:29:40;;;;;;;8.40;3.38;;;9.70;99.90;;;9.62;100.00;99926.97;5207371;28;19944;-71
2021/12/29 04:32:12;;;;;;;13.10;4.18;;;9.70;99.90;;;9.61;100.00;99933.91;5207084;28;20049;-71
2021/12/29 04:34:44;;;;;;;7.53;3.88;;;9.70;99.90;;;9.62;100.00;99940.00;5183421;22;20409;-71
2021/12/29 04:37:16;;;;;;;9.80;4.25;;;9.70;99.90;;;9.57;100.00;99952.88;5165761;28;20050;-70
2021/12/29 04:39:49;;;;;;;9.35;4.40;;;9.60;99.90;;;9.56;100.00;99956.31;5165991;28;20052;-71
2021/12/29 04:42:21;;;;;;;10.52;3.80;;;9.60;99.90;;;9.55;100.00;99961.50;5165811;28;20050;-71
2021/12/29 04:44:53;;;;;;;7.93;4.03;;;9.60;99.90;;;9.52;100.00;99960.59;5165634;28;20491;-71
2021/12/29 04:47:29;;;;;;;8.30;4.45;;;9.60;99.90;;;9.58;100.00;99979.78;5166093;28;20657;-71
2021/12/29 04:50:02;;;;;;;10.73;4.63;;;9.60;99.90;;;9.49;100.00;99964.81;5166144;28;20499;-71
2021/12/29 04:52:34;;;;;;;10.85;4.78;;;9.60;99.90;;;9.51;100.00;99969.22;5166856;28;20141;-71
2021/12/29 04:55:10;;;;;;;12.38;4.78;;;9.50;99.90;;;9.45;100.00;99963.88;5165560;28;20057;-71
2021/12/29 04:57:42;;;;;;;9.85;4.70;;;9.50;99.90;;;9.44;100.00;99969.88;5164923;28;20046;-71
2021/12/29 05:00:16;;;;;;;10.65;4.85;;;9.50;99.90;;;9.41;100.00;99995.84;5165936;28;20061;-71
2021/12/29 05:02:48;;;;;;;10.98;4.70;;;9.50;99.90;;;9.40;100.00;99981.06;5165551;28;20050;-71
2021/12/29 05:05:37;;;;;;;11.02;4.95;;;9.50;99.90;;;9.41;100.00;99984.56;5165079;28;20101;-71
2021/12/29 05:08:29;;;;;;;11.07;4.78;;;9.50;99.90;;;9.41;100.00;99984.56;5165316;28;20101;-71
2021/12/29 05:11:05;;;;;;;10.90;4.68;;;9.50;99.90;;;9.41;100.00;99990.63;5165411;28;20540;-71
2021/12/29 05:13:41;;;;;;;11.50;4.38;;;9.50;99.90;;;9.42;100.00;99984.59;5165257;28;20053;-71
2021/12/29 05:16:13;;;;;;;7.30;3.42;;;9.50;99.90;;;9.42;100.00;99999.31;5165045;28;20058;-71
2021/12/29 05:18:46;;;;;;;9.73;4.50;;;9.50;99.90;;;9.43;100.00;100001.06;5165109;28;20046;-71
2021/12/29 05:21:17;;;;;;;9.82;5.20;;;9.50;99.90;;;9.45;100.00;100004.59;5165184;28;20462;-71
2021/12/29 05:23:49;;;;;;;13.80;4.85;;;9.50;99.90;;;9.51;100.00;100010.84;5164726;28;20415;-71
2021/12/29 05:26:24;;;;;;;13.00;4.82;;;9.50;99.90;;;9.50;100.00;100003.88;5165075;28;20054;-71
2021/12/29 05:28:56;;;;;;;11.55;4.93;;;9.50;99.90;;;9.52;100.00;100006.53;5164883;28;20411;-71
2021/12/29 05:31:28;;;;;;;10.15;4.75;;;9.50;99.90;;;9.54;100.00;100019.56;5164701;28;20061;-71
2021/12/29 05:34:00;;;;;;;12.93;5.03;;;9.60;99.90;;;9.58;100.00;100016.19;5163973;28;20050;-71
2021/12/29 05:36:33;;;;;;;9.45;4.47;;;9.60;99.90;;;9.59;100.00;100018.00;5165025;28;20042;-71
2021/12/29 05:39:05;;;;;;;9.85;4.50;;;9.60;99.90;;;9.57;100.00;100017.03;5164759;28;20050;-71
2021/12/29 05:41:38;;;;;;;11.40;4.85;;;9.60;99.90;;;9.60;100.00;100020.63;5165057;28;20050;-71
2021/12/29 05:44:10;;;;;;;10.85;4.85;;;9.60;99.90;;;9.61;100.00;100027.59;5164165;28;20065;-71
2021/12/29 05:46:43;;;;;;;9.57;4.63;;;9.60;99.90;;;9.59;100.00;100037.06;5164796;28;20053;-71
2021/12/29 05:49:15;;;;;;;11.35;4.68;;;9.60;99.90;;;9.60;100.00;100040.56;5164538;28;20043;-71
2021/12/29 05:51:47;;;;;;;10.48;5.60;;;9.60;99.90;;;9.59;100.00;100036.19;5164737;28;20488;-71
2021/12/29 05:54:19;;;;;;;11.77;4.57;;;9.60;99.90;;;9.58;100.00;100037.00;5164016;28;20050;-71
2021/12/29 05:56:53;;;;;;;11.77;5.00;;;9.60;99.90;;;9.57;100.00;100037.84;5164531;28;20050;-71
2021/12/29 05:59:25;;;;;;;10.45;4.82;;;9.60;99.90;;;9.58;100.00;100037.91;5164327;28;20050;-71
2021/12/29 06:01:57;;;;;;;13.88;5.72;;;9.60;99.90;;;9.58;100.00;100021.41;5164615;28;20483;-71
2021/12/29 06:04:29;;;;;;;11.93;5.32;;;9.60;99.90;;;9.59;100.00;100041.41;5163984;28;20053;-71
2021/12/29 06:07:01;;;;;;;11.02;4.68;;;9.60;99.90;;;9.55;100.00;100043.03;5164821;28;20074;-70
2021/12/29 06:09:33;;;;;;;12.77;5.28;;;9.60;99.90;;;9.58;100.00;100047.41;5163369;28;20069;-71
2021/12/29 06:12:08;;;;;;;14.30;5.30;;;9.60;99.90;;;9.57;100.00;100040.47;5164363;28;20488;-71
2021/12/29 06:14:42;;;;;;;12.50;5.25;;;9.60;99.90;;;9.55;100.00;100042.16;5163984;28;20046;-71
2021/12/29 06:17:14;;;;;;;11.93;5.53;;;9.60;99.90;;;9.52;100.00;100043.84;5164054;28;20101;-71
2021/12/29 06:19:46;;;;;;;14.73;5.03;;;9.60;99.90;;;9.52;100.00;100037.75;5163911;28;20046;-71
2021/12/29 06:22:18;;;;;;;11.38;4.15;;;9.60;99.90;;;9.49;100.00;100038.53;5164304;28;20046;-71
2021/12/29 06:24:52;;;;;;;13.07;4.70;;;9.50;99.90;;;9.48;100.00;100041.97;5163478;28;20341;-71
2021/12/29 06:27:26;;;;;;;12.63;5.22;;;9.50;99.90;;;9.47;100.00;100045.44;5164160;28;20050;-71
2021/12/29 06:29:58;;;;;;;11.65;4.85;;;9.50;99.90;;;9.51;100.00;100048.97;5164047;28;20053;-71
2021/12/29 06:32:30;;;;;;;12.98;5.13;;;9.50;99.90;;;9.55;100.00;100052.56;5163629;28;20046;-71
2021/12/29 06:35:03;;;;;;;13.73;5.10;;;9.60;99.90;;;9.56;100.00;100059.53;5163291;28;20057;-71
2021/12/29 06:37:35;;;;;;;10.27;5.22;;;9.60;99.90;;;9.58;100.00;100057.81;5164365;28;20482;-71
2021/12/29 06:40:09;;;;;;;13.15;5.50;;;9.60;99.90;;;9.60;100.00;100057.06;5164181;28;20061;-71
2021/12/29 06:42:43;;;;;;;14.98;5.32;;;9.60;99.90;;;9.61;100.00;100057.94;5163741;28;20046;-70
2021/12/29 06:45:15;;;;;;;11.68;4.85;;;9.60;99.90;;;9.60;100.00;100061.38;5163502;28;20054;-71
2021/12/29 06:47:47;;;;;;;17.33;5.63;;;9.60;99.90;;;9.60;100.00;100064.84;5163819;28;20046;-71
2021/12/29 06:50:19;;;;;;;13.20;5.18;;;9.60;99.90;;;9.61;100.00;100073.53;5163756;28;20057;-70
2021/12/29 06:52:51;;;;;;;11.05;5.18;;;9.60;99.90;;;9.60;100.00;100074.38;5163883;28;20054;-71
2021/12/29 06:55:23;;;;;;;13.20;5.53;;;9.60;99.90;;;9.61;100.00;100079.63;5163388;28;20050;-71
2021/12/29 06:57:56;;;;;;;14.13;5.75;;;9.60;99.90;;;9.63;100.00;100090.94;5163554;28;20053;-71
2021/12/29 07:00:28;;;;;;;14.40;5.50;;;9.60;99.90;;;9.62;100.00;100091.78;5163583;28;20050;-72
2021/12/29 07:03:01;;;;;;;14.57;5.50;;;9.60;99.90;;;9.60;100.00;100090.00;5163554;28;20046;-72
2021/12/29 07:05:33;;;;;;;12.13;5.03;;;9.60;99.90;;;9.60;100.00;100093.47;5163400;28;20133;-72
2021/12/29 07:08:05;;;;;;;13.68;6.65;;;9.60;99.90;;;9.60;100.00;100093.47;5164247;28;20443;-71
2021/12/29 07:10:40;;;;;;;13.88;4.78;;;9.60;99.90;;;9.61;100.00;100096.97;5163855;28;20074;-71
2021/12/29 07:13:14;;;;;;;12.68;4.85;;;9.60;99.90;;;9.62;100.00;100103.91;5163577;28;20059;-71
2021/12/29 07:15:46;;;;;;;11.00;4.60;;;9.60;99.90;;;9.63;100.00;100105.69;5163152;28;20050;-71
2021/12/29 07:18:18;;;;;;;12.30;5.05;;;9.60;99.90;;;9.65;100.00;100109.19;5163572;28;20056;-72
2021/12/29 07:20:50;;;;;;;12.95;4.72;;;9.60;99.90;;;9.65;100.00;100111.78;5166076;28;20054;-71
2021/12/29 07:23:21;;;;;;;9.35;4.35;;;9.60;99.90;;;9.66;100.00;100124.88;5167483;28;20051;-72
2021/12/29 07:25:53;;;;;;;12.85;4.75;;;9.70;99.90;;;9.65;100.00;100128.31;5167246;28;20047;-72
2021/12/29 07:28:27;;;;;;;10.43;4.40;;;9.60;99.90;;;9.66;100.00;100135.28;5167426;28;20050;-72
2021/12/29 07:30:59;;;;;;;11.75;4.82;;;9.70;99.90;;;9.66;100.00;100122.28;5167081;28;20054;-71
2021/12/29 07:33:32;;;;;;;11.57;4.63;;;9.70;99.90;;;9.68;100.00;100132.72;5166943;28;20050;-72
2021/12/29 07:36:05;;;;;;;13.55;5.00;;;9.60;99.90;;;9.66;100.00;100129.19;5166974;28;20053;-72
2021/12/29 07:38:37;;;;;;;11.93;5.18;;;9.70;99.90;;;9.67;100.00;100126.63;5166858;28;20046;-71
2021/12/29 07:41:10;;;;;;;10.18;4.00;;;9.70;99.90;;;9.67;100.00;100137.03;5167232;28;20064;-71
2021/12/29 07:43:44;;;;;;;11.95;4.30;;;9.70;99.90;;;9.68;100.00;100143.13;5166941;28;20061;-71
2021/12/29 07:46:16;;;;;;;10.65;4.88;;;9.70;99.90;;;9.67;100.00;100130.97;5167009;28;20501;-71
2021/12/29 07:48:48;;;;;;;8.98;3.72;;;9.70;99.90;;;9.68;100.00;100132.72;5167130;28;20053;-72
2021/12/29 07:51:19;;;;;;;9.63;4.32;;;9.70;99.90;;;9.69;100.00;100134.47;5167099;28;20073;-71
2021/12/29 07:53:52;;;;;;;10.80;4.00;;;9.70;99.90;;;9.69;100.00;100137.06;5166237;28;20065;-71
2021/12/29 07:56:25;;;;;;;7.10;3.42;;;9.70;99.90;;;9.68;100.00;100132.72;5166803;28;20065;-71
2021/12/29 07:58:58;;;;;;;6.55;3.03;;;9.70;99.90;;;9.68;100.00;100150.94;5166747;28;20077;-71
2021/12/29 08:01:30;;;;;;;9.45;3.78;;;9.70;99.90;;;9.69;100.00;100150.97;5166510;28;20050;-71
2021/12/29 08:04:02;;;;;;;8.50;3.72;;;9.70;99.90;;;9.69;100.00;100155.28;5166146;28;20057;-72
2021/12/29 08:06:36;;;;;;;9.27;3.60;;;9.70;99.90;;;9.69;100.00;100165.72;5166738;28;20050;-72
2021/12/29 08:09:09;;;;;;;8.18;3.63;;;9.70;99.90;;;9.69;100.00;100165.72;5166662;28;20046;-72
2021/12/29 08:11:42;;;;;;;10.13;3.95;;;9.70;99.90;;;9.69;100.00;100160.50;5166508;28;20050;-71
2021/12/29 08:14:15;;;;;;;10.35;3.80;;;9.70;99.90;;;9.68;100.00;100180.44;5166422;28;20439;-71
2021/12/29 08:16:47;;;;;;;10.32;3.55;;;9.60;99.90;;;9.69;100.00;100176.13;5166328;28;20050;-71
2021/12/29 08:19:19;;;;;;;8.82;3.65;;;9.70;99.90;;;9.69;100.00;100178.72;5166177;28;20066;-72
2021/12/29 08:21:51;;;;;;;6.90;3.30;;;9.70;99.90;;;9.70;100.00;100185.69;5166380;28;20057;-72
2021/12/29 08:24:23;;;;;;;5.65;2.97;;;9.70;99.90;;;9.70;100.00;100183.06;5165769;28;20057;-71
2021/12/29 08:26:55;;;;;;;8.65;3.90;;;9.70;99.90;;;9.72;100.00;100197.03;5165904;28;20053;-72
2021/12/29 08:29:28;;;;;;;7.18;3.47;;;9.70;99.90;;;9.71;100.00;100190.91;5166369;28;20057;-72
2021/12/29 08:32:00;;;;;;;5.45;2.78;;;9.70;99.90;;;9.73;100.00;100189.28;5165292;28;20046;-72
2021/12/29 08:34:32;;;;;;;8.30;3.83;;;9.70;99.90;;;9.74;100.00;100190.16;5165418;28;20128;-71
2021/12/29 08:37:04;;;;;;;4.60;2.78;;;9.70;99.90;;;9.77;100.00;100198.91;5166243;28;20069;-71
2021/12/29 08:39:36;;;;;;;4.03;2.35;;;9.70;99.90;;;9.78;100.00;100199.81;5165702;28;20057;-71
2021/12/29 08:42:08;;;;;;;10.10;3.30;;;9.80;99.90;;;9.80;100.00;100198.13;5166055;28;20492;-72
2021/12/29 08:44:42;;;;;;;8.98;3.45;;;9.80;99.90;;;9.82;100.00;100199.03;5165330;28;20050;-71
2021/12/29 08:47:14;;;;;;;6.05;3.15;;;9.80;99.90;;;9.82;99.94;100199.03;5166087;28;20046;-72
2021/12/29 08:49:46;;;;;;;7.43;3.20;;;9.80;99.90;;;9.83;99.74;100206.00;5165720;28;20050;-73
2021/12/29 08:52:18;;;;;;;5.97;3.13;;;9.80;99.90;;;9.85;99.78;100217.38;5165551;28;20062;-72
2021/12/29 08:54:50;;;;;;;6.70;3.28;;;9.80;99.90;;;9.85;99.70;100209.56;5165466;28;20050;-72
2021/12/29 08:57:22;;;;;;;5.38;2.50;;;9.80;99.90;;;9.87;99.64;100213.09;5165991;28;20058;-71
2021/12/29 08:59:55;;;;;;;6.53;2.78;;;9.80;99.90;;;9.89;99.36;100211.41;5165772;28;20502;-71
2021/12/29 09:02:27;;;;;;;5.88;2.53;;;9.80;99.90;;;9.90;99.17;100228.78;5165243;28;20051;-71
2021/12/29 09:04:59;;;;;;;5.72;3.05;;;9.80;99.90;;;9.90;99.26;100213.16;5164986;28;20046;-71
2021/12/29 09:07:31;;;;;;;6.45;3.33;;;9.80;99.90;;;9.92;99.11;100214.09;5165586;28;20506;-71
2021/12/29 09:10:05;;;;;;;11.13;3.72;;;9.90;99.90;;;9.92;99.09;100210.63;5165467;28;20046;-70
2021/12/29 09:12:38;;;;;;;10.40;3.40;;;9.90;99.90;;;9.95;98.87;100211.56;5165470;28;20049;-70
2021/12/29 09:15:11;;;;;;;8.45;3.47;;;9.90;99.90;;;9.98;98.92;100216.00;5164835;28;20370;-70
2021/12/29 09:17:44;;;;;;;4.18;2.35;;;9.90;99.90;;;10.01;98.63;100227.38;5165438;28;20058;-70
2021/12/29 09:20:25;;;;;;;5.70;3.08;;;10.00;99.90;;;10.00;98.45;100229.94;5164882;28;20050;-70
2021/12/29 09:23:04;;;;;;;7.30;3.08;;;9.90;99.90;;;10.04;98.21;100234.38;5165620;28;20077;-69
2021/12/29 09:25:39;;;;;;;7.32;3.13;;;10.00;99.90;;;10.04;98.13;100234.38;5164863;28;20054;-70
2021/12/29 09:28:14;;;;;;;;;;;10.00;99.90;;;10.04;98.01;100234.38;5165508;28;20050;-69
2021/12/29 09:30:50;;;;;;;6.63;2.83;;;10.00;99.90;;;10.05;97.68;100231.84;5164904;28;19922;-70
2021/12/29 09:33:22;;;;;;;4.78;2.47;;;10.00;99.90;;;10.06;97.52;100230.09;5164867;28;20050;-70
2021/12/29 09:35:57;;;;;;;5.25;2.83;;;10.00;99.90;;;10.10;97.49;100233.66;5164408;28;20053;-70
2021/12/29 09:38:31;;;;;;;6.70;2.72;;;10.00;99.90;;;10.11;97.21;100230.25;5165117;28;20129;-69
2021/12/29 09:41:09;;;;;;;6.72;3.13;;;10.00;99.90;;;10.13;97.02;100232.03;5164571;28;20050;-69
2021/12/29 09:43:43;;;;;;;4.10;2.38;;;10.00;99.90;;;10.17;96.88;100238.19;5164489;28;20056;-69
2021/12/29 09:46:17;;;;;;;7.07;2.60;;;10.10;99.90;;;10.19;96.88;100237.41;5164249;28;20056;-70
2021/12/29 09:48:51;;;;;;;8.00;3.55;;;10.10;99.90;;;10.22;96.78;100237.47;5165089;28;20112;-69
2021/12/29 09:51:23;;;;;;;6.30;2.90;;;10.10;99.90;;;10.25;96.40;100234.13;5164465;28;20054;-70
2021/12/29 09:53:56;;;;;;;6.30;3.22;;;10.20;99.90;;;10.26;96.18;100234.16;5164265;28;20046;-69
2021/12/29 09:56:28;;;;;;;6.68;3.30;;;10.20;99.90;;;10.29;96.11;100239.44;5164502;28;20408;-69
2021/12/29 09:59:00;;;;;;;7.63;2.85;;;10.20;99.90;;;10.30;95.79;100230.81;5164538;28;20046;-69
2021/12/29 10:01:33;;;;;;;6.45;3.13;;;10.20;99.90;;;10.29;95.36;100242.06;5164344;28;20050;-70
2021/12/29 10:04:05;;;;;;;5.78;2.85;;;10.20;99.90;;;10.29;95.03;100238.56;5163929;28;20488;-69
2021/12/29 10:06:38;;;;;;;5.50;2.88;;;10.20;99.90;;;10.27;95.33;100235.94;5164731;28;20455;-69
2021/12/29 10:09:14;;;;;;;4.45;2.70;;;10.20;99.90;;;10.28;95.16;100234.19;5164123;28;20046;-70
2021/12/29 10:11:47;;;;;;;7.45;3.40;;;10.20;99.90;;;10.27;95.14;100232.44;5164418;28;20054;-69
2021/12/29 10:14:19;;;;;;;6.68;3.20;;;10.20;99.90;;;10.29;95.12;100238.56;5163988;28;20096;-69
2021/12/29 10:16:53;;;;;;;3.88;2.50;;;10.20;99.90;;;10.35;93.96;100238.72;5164422;28;20050;-69
2021/12/29 10:19:24;;;;;;;6.53;2.65;;;10.30;99.90;;;10.40;92.50;100236.25;5164044;28;20051;-69
2021/12/29 10:21:56;;;;;;;4.85;3.05;;;10.20;99.90;;;10.36;92.54;100222.25;5164299;28;20060;-69
2021/12/29 10:24:28;;;;;;;6.70;3.00;;;10.20;99.90;;;10.37;93.02;100221.44;5163637;28;20507;-70
2021/12/29 10:27:01;;;;;;;5.85;3.22;;;10.30;99.90;;;10.40;93.23;100211.09;5164357;28;20050;-69
2021/12/29 10:29:33;;;;;;;2.47;1.50;;;10.30;99.90;;;10.45;93.37;100206.88;5163634;28;20057;-69
2021/12/29 10:32:07;;;;;;;6.43;3.15;;;10.30;99.90;;;10.52;93.66;100190.56;5163935;28;20054;-70
2021/12/29 10:34:39;;;;;;;8.10;3.45;;;10.40;99.90;;;10.60;93.72;100196.84;5282810;22;20076;-79
2021/12/29 10:37:11;;;;;;;4.55;2.17;;;10.40;99.90;;;10.68;93.96;100196.16;5203354;28;20053;-79
2021/12/29 10:39:46;;;;;;;2.83;1.90;;;10.50;99.90;;;10.73;93.64;100199.75;5188521;28;20052;-79
2021/12/29 10:42:22;;;;;;;4.82;2.20;;;10.60;99.90;;;10.81;93.37;100199.09;5186011;28;20054;-79
2021/12/29 10:44:59;;;;;;;5.05;2.58;;;10.60;99.90;;;10.85;93.24;100190.50;5186092;28;20045;-79